Time;durP1;ratioP1;P1;durP2;ratioP2;P2;SDS_P1;SDS_P2;PMS_P1;PMS_P2;Temp;Humidity;BMP_temperature;BMP_pressure;BME280_temperature;BME280_humidity;BME280_pressure;Samples;Min_cycle;Max_cycle;Signal;HPM_P1;HPM_P2
2022/09/08 00:00:45;;;;;;;6.60;4.67;;;;;;;17.26;100.00;98097.16;4921935;28;20252;-56
2022/09/08 00:03:15;;;;;;;8.70;4.40;;;;;;;17.24;100.00;98091.28;4922551;28;20237;-53
2022/09/08 00:05:45;;;;;;;5.57;4.33;;;;;;;17.27;100.00;98082.16;4925539;28;20251;-54
2022/09/08 00:08:13;;;;;;;6.00;4.03;;;;;;;17.25;100.00;98086.81;4923989;28;20280;-53
2022/09/08 00:10:41;;;;;;;9.70;4.90;;;;;;;17.28;100.00;98094.31;4911465;29;20840;-54
2022/09/08 00:13:08;;;;;;;8.57;5.20;;;;;;;17.29;100.00;98100.41;4912667;28;20334;-53
2022/09/08 00:15:38;;;;;;;7.73;4.87;;;;;;;17.26;100.00;98104.28;4915144;28;20258;-54
2022/09/08 00:18:05;;;;;;;11.67;5.00;;;;;;;17.20;100.00;98107.72;4871750;28;20249;-56
2022/09/08 00:20:57;;;;;;;7.20;4.60;;;;;;;17.18;100.00;98105.28;4884809;29;20304;-54
2022/09/08 00:23:25;;;;;;;6.53;4.40;;;;;;;17.18;100.00;98100.00;4847968;28;20708;-55
2022/09/08 00:26:18;;;;;;;10.80;5.60;;;;;;;17.18;100.00;98109.75;4920327;28;20248;-56
2022/09/08 00:28:45;;;;;;;7.97;4.37;;;;;;;17.19;100.00;98111.38;4896455;28;20243;-56
2022/09/08 00:31:19;;;;;;;9.27;4.50;;;;;;;17.16;100.00;98131.06;4804962;28;20245;-55
2022/09/08 00:33:46;;;;;;;6.53;4.43;;;;;;;17.14;100.00;98141.00;4908106;28;20230;-55
2022/09/08 00:36:19;;;;;;;5.47;4.50;;;;;;;17.16;100.00;98138.16;4915294;28;20312;-55
2022/09/08 00:38:57;;;;;;;6.80;5.33;;;;;;;17.18;100.00;98128.22;4912944;28;20235;-54
2022/09/08 00:41:45;;;;;;;9.20;5.33;;;;;;;17.17;100.00;98137.94;4840512;29;20353;-56
2022/09/08 00:44:56;;;;;;;7.53;5.13;;;;;;;17.19;100.00;98135.13;4876767;28;20261;-56
2022/09/08 00:47:26;;;;;;;11.10;5.27;;;;;;;17.25;100.00;98131.66;4903138;28;20247;-56
2022/09/08 00:49:59;;;;;;;7.43;5.17;;;;;;;17.27;100.00;98148.88;4910596;28;20239;-55
2022/09/08 00:52:45;;;;;;;14.60;7.83;;;;;;;17.28;100.00;98149.72;4924994;28;20231;-54
2022/09/08 00:55:15;;;;;;;14.73;6.37;;;;;;;17.24;100.00;98148.50;4915650;28;20313;-55
2022/09/08 00:57:42;;;;;;;10.00;6.77;;;;;;;17.22;100.00;98138.16;4921417;28;20238;-54
2022/09/08 01:00:16;;;;;;;8.23;5.60;;;;;;;17.22;100.00;98130.22;4906483;28;20653;-55
2022/09/08 01:02:45;;;;;;;9.10;5.70;;;;;;;17.21;100.00;98115.44;4916216;28;20250;-53
2022/09/08 01:05:25;;;;;;;6.27;5.07;;;;;;;17.23;100.00;98113.38;4896503;28;20239;-55
2022/09/08 01:13:43;;;;;;;6.23;4.60;;;;;;;17.29;100.00;98084.56;4920334;28;20673;-52
2022/09/08 01:16:11;;;;;;;10.90;4.87;;;;;;;17.31;100.00;98091.28;4922967;28;20230;-52
2022/09/08 01:18:39;;;;;;;7.47;5.20;;;;;;;17.30;100.00;98086.19;4926929;29;20231;-54
2022/09/08 01:21:17;;;;;;;5.93;4.30;;;;;;;17.29;100.00;98084.56;4920987;28;20255;-56
2022/09/08 01:24:04;;;;;;;8.80;4.43;;;;;;;17.28;100.00;98086.41;4919798;28;20235;-56
2022/09/08 01:26:46;;;;;;;7.90;4.30;;;;;;;17.22;100.00;98084.59;4917372;28;20230;-56
2022/09/08 01:29:16;;;;;;;5.83;4.37;;;;;;;17.18;100.00;98089.47;4919627;28;20222;-54
2022/09/08 01:31:45;;;;;;;5.67;4.77;;;;;;;17.16;100.00;98093.34;4925751;28;20311;-53
2022/09/08 01:34:12;;;;;;;7.57;5.20;;;;;;;17.13;100.00;98101.66;4921025;28;20327;-54
2022/09/08 01:36:39;;;;;;;6.10;4.77;;;;;;;17.09;100.00;98098.63;4922135;29;20222;-55
2022/09/08 01:39:06;;;;;;;6.43;4.20;;;;;;;17.09;100.00;98094.16;4920592;28;20619;-54
2022/09/08 01:41:33;;;;;;;5.93;4.40;;;;;;;17.08;100.00;98083.81;4927035;28;20231;-53
2022/09/08 01:43:59;;;;;;;4.93;4.20;;;;;;;17.05;100.00;98085.03;4926373;29;20321;-54
2022/09/08 01:46:29;;;;;;;4.10;3.70;;;;;;;17.08;100.00;98076.72;4925034;28;20298;-54
2022/09/08 01:48:56;;;;;;;6.57;4.23;;;;;;;17.04;100.00;98078.16;4926005;28;20947;-53
2022/09/08 01:51:23;;;;;;;6.63;4.03;;;;;;;17.00;100.00;98076.13;4924410;28;20247;-55
2022/09/08 01:53:49;;;;;;;7.03;4.47;;;;;;;17.00;100.00;98082.22;4927775;29;20239;-53
2022/09/08 01:56:16;;;;;;;7.10;4.40;;;;;;;16.96;100.00;98070.44;4924547;28;20297;-55
2022/09/08 01:58:43;;;;;;;9.47;4.20;;;;;;;16.96;100.00;98073.06;4927711;28;20306;-55
2022/09/08 02:01:11;;;;;;;4.60;3.57;;;;;;;16.94;100.00;98069.81;4927061;28;20235;-54
2022/09/08 02:03:40;;;;;;;4.30;3.90;;;;;;;16.96;100.00;98075.69;4929141;28;20938;-56
2022/09/08 02:06:08;;;;;;;5.47;4.10;;;;;;;16.96;100.00;98065.97;4926521;28;20236;-55
2022/09/08 02:08:35;;;;;;;8.93;4.40;;;;;;;16.95;100.00;98064.34;4930441;28;20250;-56
2022/09/08 02:11:02;;;;;;;5.50;3.53;;;;;;;17.01;100.00;98068.00;4909802;28;20251;-56
2022/09/08 02:13:29;;;;;;;6.20;3.70;;;;;;;16.95;100.00;98072.28;4925390;29;20240;-55
2022/09/08 02:16:01;;;;;;;5.43;4.40;;;;;;;16.96;100.00;98071.25;4927478;28;20309;-54
2022/09/08 02:18:29;;;;;;;5.43;3.47;;;;;;;17.04;100.00;98077.31;4927481;28;20234;-53
2022/09/08 02:21:09;;;;;;;5.87;3.73;;;;;;;17.07;100.00;98072.47;4926499;29;21972;-56
2022/09/08 02:23:55;;;;;;;3.63;2.03;;;;;;;17.14;100.00;98077.72;4922849;28;20317;-54
2022/09/08 02:26:23;;;;;;;3.00;2.13;;;;;;;17.21;100.00;98077.72;4925113;28;21870;-56
2022/09/08 02:28:52;;;;;;;2.33;1.90;;;;;;;17.29;100.00;98076.66;4928533;28;20252;-55
2022/09/08 02:31:18;;;;;;;4.37;1.90;;;;;;;17.36;100.00;98074.81;4925067;28;20313;-54
2022/09/08 02:33:45;;;;;;;2.30;1.70;;;;;;;17.33;100.00;98091.88;4927478;28;20281;-55
2022/09/08 02:36:14;;;;;;;2.43;1.67;;;;;;;17.38;100.00;98092.06;4926147;28;20269;-56
2022/09/08 02:38:40;;;;;;;2.10;1.60;;;;;;;17.42;100.00;98097.72;4925892;29;20299;-55
2022/09/08 02:41:07;;;;;;;3.00;1.50;;;;;;;17.44;100.00;98093.03;4923783;28;20243;-53
2022/09/08 02:43:34;;;;;;;1.50;1.20;;;;;;;17.43;100.00;98095.91;4928014;28;20241;-55
2022/09/08 02:46:06;;;;;;;1.87;1.23;;;;;;;17.48;99.18;98102.16;4926237;28;20242;-55
2022/09/08 02:48:33;;;;;;;1.40;1.13;;;;;;;17.45;98.70;98099.94;4921937;28;20239;-54
2022/09/08 02:51:00;;;;;;;1.53;1.20;;;;;;;17.49;100.00;98108.28;4927274;28;20330;-56
2022/09/08 02:53:30;;;;;;;3.00;1.20;;;;;;;17.43;100.00;98099.34;4925688;28;20238;-53
2022/09/08 02:55:58;;;;;;;3.33;1.00;;;;;;;17.38;100.00;98102.63;4925780;28;20238;-55
2022/09/08 02:58:25;;;;;;;1.20;1.03;;;;;;;17.40;98.12;98107.66;4911866;28;20290;-53
2022/09/08 03:03:50;;;;;;;1.57;1.10;;;;;;;17.35;100.00;98095.13;5719181;23;20751;-52
2022/09/08 03:06:36;;;;;;;1.60;0.90;;;;;;;17.37;97.44;98087.81;4945368;28;20248;-55
2022/09/08 03:09:05;;;;;;;1.70;1.07;;;;;;;17.36;98.08;98088.00;4952104;28;20233;-53
2022/09/08 03:11:32;;;;;;;1.23;1.10;;;;;;;17.34;97.87;98093.50;4954681;28;20585;-54
2022/09/08 03:13:59;;;;;;;2.33;1.07;;;;;;;17.42;96.90;98087.16;4946979;28;20268;-53
2022/09/08 03:16:27;;;;;;;1.10;1.00;;;;;;;17.44;96.60;98086.97;4934612;28;20726;-54
2022/09/08 03:18:54;;;;;;;1.90;1.00;;;;;;;17.45;94.31;98070.91;4937280;28;20316;-54
2022/09/08 03:21:21;;;;;;;3.10;1.10;;;;;;;17.51;95.39;98101.75;4937039;28;20720;-55
2022/09/08 03:23:48;;;;;;;4.70;1.20;;;;;;;17.50;96.72;98123.06;4936618;28;20255;-52
2022/09/08 03:26:20;;;;;;;5.20;1.10;;;;;;;17.45;98.32;98128.97;4931761;28;20230;-55
2022/09/08 03:28:47;;;;;;;5.70;1.70;;;;;;;17.35;100.00;98137.31;4938033;28;20249;-55
2022/09/08 03:31:16;;;;;;;3.43;1.60;;;;;;;17.27;100.00;98162.06;4935104;28;20288;-54
2022/09/08 03:33:44;;;;;;;5.60;1.60;;;;;;;16.91;100.00;98192.31;4935532;28;20331;-53
2022/09/08 03:36:12;;;;;;;1.63;1.40;;;;;;;16.60;100.00;98203.41;4933807;28;20287;-55
2022/09/08 03:38:39;;;;;;;3.63;1.27;;;;;;;16.48;100.00;98196.09;4938656;28;20263;-55
2022/09/08 03:41:07;;;;;;;1.67;1.10;;;;;;;16.39;100.00;98184.16;4935013;28;20227;-55
2022/09/08 03:43:35;;;;;;;2.60;1.23;;;;;;;16.24;100.00;98194.84;4936564;28;20710;-53
2022/09/08 03:46:06;;;;;;;1.57;0.93;;;;;;;16.17;100.00;98188.72;4936523;28;20220;-53
2022/09/08 03:48:34;;;;;;;4.87;1.00;;;;;;;16.16;100.00;98197.63;4935019;28;20235;-54
2022/09/08 03:51:08;;;;;;;2.03;1.20;;;;;;;16.10;100.00;98194.00;4937849;28;20236;-54
2022/09/08 03:53:35;;;;;;;1.97;1.03;;;;;;;16.06;100.00;98176.97;4933166;28;20243;-55
2022/09/08 03:56:05;;;;;;;2.17;1.00;;;;;;;16.01;100.00;98176.75;4937391;28;20291;-55
2022/09/08 03:58:32;;;;;;;5.20;1.20;;;;;;;15.96;100.00;98173.88;4932883;28;20359;-55
2022/09/08 04:01:02;;;;;;;2.40;1.07;;;;;;;15.86;100.00;98177.66;4935950;28;20234;-54
2022/09/08 04:03:29;;;;;;;2.20;1.23;;;;;;;15.81;100.00;98166.13;4935418;28;20241;-54
2022/09/08 04:05:56;;;;;;;1.00;0.90;;;;;;;15.72;100.00;98160.19;4936280;28;20245;-55
2022/09/08 04:08:23;;;;;;;1.73;0.67;;;;;;;15.67;100.00;98152.91;4935024;28;20243;-55
2022/09/08 04:10:49;;;;;;;2.83;0.60;;;;;;;15.60;100.00;98155.47;4938913;28;20236;-55
2022/09/08 04:13:16;;;;;;;1.43;0.63;;;;;;;15.54;100.00;98151.00;4936793;28;20294;-53
2022/09/08 04:15:43;;;;;;;1.47;0.63;;;;;;;15.48;100.00;98138.63;4937108;28;20229;-55
2022/09/08 04:18:10;;;;;;;0.60;0.30;;;;;;;15.37;97.70;98147.09;4934409;28;20229;-55
2022/09/08 04:20:38;;;;;;;2.13;0.60;;;;;;;15.31;98.52;98148.66;4935895;28;20275;-55
2022/09/08 04:23:05;;;;;;;0.87;0.40;;;;;;;15.20;96.40;98145.56;4934622;28;20585;-56
2022/09/08 04:25:32;;;;;;;0.60;0.40;;;;;;;15.18;97.97;98152.81;4939095;28;20763;-54
2022/09/08 04:27:59;;;;;;;3.50;0.50;;;;;;;15.12;98.31;98150.16;4938642;28;20229;-54
2022/09/08 04:30:25;;;;;;;1.27;0.60;;;;;;;15.03;98.65;98154.72;4939668;28;20236;-56
2022/09/08 04:32:52;;;;;;;2.80;0.50;;;;;;;14.93;99.04;98154.25;4940329;28;20293;-56
2022/09/08 04:35:20;;;;;;;0.70;0.40;;;;;;;14.91;100.00;98157.88;4939211;28;20234;-54
2022/09/08 04:37:47;;;;;;;1.83;0.40;;;;;;;14.91;98.67;98159.72;4941378;28;20266;-52
2022/09/08 04:40:14;;;;;;;0.53;0.40;;;;;;;14.80;99.17;98161.06;4940254;28;20245;-56
2022/09/08 04:42:40;;;;;;;1.43;0.60;;;;;;;14.79;99.39;98162.06;4940087;28;20240;-55
2022/09/08 04:45:07;;;;;;;1.93;0.50;;;;;;;14.74;100.00;98169.69;4939476;28;20243;-56
2022/09/08 04:47:34;;;;;;;0.87;0.33;;;;;;;14.74;100.00;98173.09;4938759;28;20253;-54
2022/09/08 04:50:01;;;;;;;0.47;0.40;;;;;;;14.75;100.00;98169.47;4942481;28;20221;-55
2022/09/08 04:52:29;;;;;;;0.60;0.30;;;;;;;14.75;100.00;98171.31;4938694;28;20924;-55
2022/09/08 04:54:56;;;;;;;0.90;0.30;;;;;;;14.80;99.84;98184.69;4943895;28;20357;-56
2022/09/08 04:57:22;;;;;;;0.60;0.40;;;;;;;14.78;100.00;98168.31;4938435;28;20245;-53
2022/09/08 04:59:49;;;;;;;0.93;0.30;;;;;;;14.75;100.00;98173.94;4941442;28;20241;-54
2022/09/08 05:02:15;;;;;;;1.67;0.40;;;;;;;14.75;99.66;98166.06;4938809;28;20228;-56
2022/09/08 05:04:42;;;;;;;1.10;0.30;;;;;;;14.73;99.24;98160.19;4938649;28;20241;-54
2022/09/08 05:07:09;;;;;;;4.50;0.40;;;;;;;14.75;100.00;98160.81;4937406;28;20227;-54
2022/09/08 05:09:37;;;;;;;1.17;0.40;;;;;;;14.76;100.00;98157.16;4937646;28;20311;-52
2022/09/08 05:12:04;;;;;;;0.93;0.50;;;;;;;14.80;100.00;98157.59;4937953;28;20256;-53
2022/09/08 05:14:31;;;;;;;1.40;0.50;;;;;;;14.79;100.00;98158.59;4940473;28;20290;-55
2022/09/08 05:16:57;;;;;;;1.10;0.50;;;;;;;14.71;100.00;98159.56;4938636;28;20220;-54
2022/09/08 05:19:24;;;;;;;0.77;0.40;;;;;;;14.64;100.00;98175.22;4937517;28;20315;-53
2022/09/08 05:21:51;;;;;;;1.20;0.60;;;;;;;14.68;100.00;98186.16;4940424;28;20251;-54
2022/09/08 05:24:17;;;;;;;2.00;0.50;;;;;;;14.67;100.00;98181.91;4936881;28;21639;-53
2022/09/08 05:26:45;;;;;;;0.70;0.47;;;;;;;14.65;100.00;98182.09;4937558;28;20239;-52
2022/09/08 05:29:12;;;;;;;1.53;0.60;;;;;;;14.62;100.00;98182.47;4935237;28;20560;-55
2022/09/08 05:31:39;;;;;;;2.73;0.50;;;;;;;14.67;100.00;98200.31;4941395;28;20309;-53
2022/09/08 05:34:05;;;;;;;1.13;0.80;;;;;;;14.62;100.00;98198.22;4936636;28;20233;-54
2022/09/08 05:36:34;;;;;;;0.80;0.50;;;;;;;14.61;100.00;98192.16;4941086;28;20725;-55
2022/09/08 05:39:02;;;;;;;0.50;0.40;;;;;;;14.71;100.00;98204.22;4939083;28;20288;-54
2022/09/08 05:41:31;;;;;;;1.07;0.40;;;;;;;14.73;100.00;98202.22;4938833;28;20255;-52
2022/09/08 05:44:00;;;;;;;0.80;0.60;;;;;;;14.74;100.00;98207.25;4937486;28;20791;-55
2022/09/08 05:46:28;;;;;;;1.23;0.60;;;;;;;14.74;100.00;98201.22;4935675;28;20241;-52
2022/09/08 05:48:57;;;;;;;1.83;1.10;;;;;;;14.80;100.00;98204.88;4942864;28;20238;-55
2022/09/08 05:51:24;;;;;;;2.60;0.63;;;;;;;14.87;100.00;98206.56;4937163;28;20358;-52
2022/09/08 05:53:51;;;;;;;0.70;0.50;;;;;;;14.90;100.00;98205.38;4940475;28;21175;-54
2022/09/08 05:56:18;;;;;;;1.33;0.60;;;;;;;14.91;100.00;98215.69;4936758;28;20405;-52
2022/09/08 05:58:51;;;;;;;1.90;0.70;;;;;;;14.94;100.00;98224.19;4939431;28;20237;-53
2022/09/08 06:01:19;;;;;;;1.07;0.70;;;;;;;15.02;100.00;98226.69;4935160;28;20268;-54
2022/09/08 06:03:46;;;;;;;3.93;0.97;;;;;;;15.10;99.08;98226.56;4936949;28;20657;-54
2022/09/08 06:06:14;;;;;;;1.83;0.60;;;;;;;15.20;94.35;98223.63;4934919;28;20276;-54
2022/09/08 06:08:42;;;;;;;1.20;0.63;;;;;;;15.22;92.65;98228.69;4936750;28;20307;-54
2022/09/08 06:11:10;;;;;;;2.80;0.50;;;;;;;15.34;90.26;98233.25;4937725;28;20226;-52
2022/09/08 06:13:37;;;;;;;0.70;0.50;;;;;;;15.40;88.93;98231.66;4936309;28;20255;-55
2022/09/08 06:16:06;;;;;;;0.80;0.33;;;;;;;15.45;89.44;98242.41;4934245;28;20235;-52
2022/09/08 06:18:35;;;;;;;1.97;0.40;;;;;;;15.59;90.08;98247.75;4936893;28;20290;-53
2022/09/08 06:21:05;;;;;;;0.67;0.40;;;;;;;15.78;92.27;98251.50;4937332;28;20240;-54
2022/09/08 06:23:32;;;;;;;2.33;0.60;;;;;;;15.72;86.39;98254.91;4933414;28;20328;-54
2022/09/08 06:26:24;;;;;;;0.90;0.40;;;;;;;15.78;87.36;98262.03;4937602;28;20220;-52
2022/09/08 06:28:58;;;;;;;0.43;0.40;;;;;;;15.81;87.18;98261.66;4931372;28;20241;-54
2022/09/08 06:31:29;;;;;;;0.93;0.40;;;;;;;15.87;86.90;98260.09;4932515;28;20251;-52
2022/09/08 06:34:01;;;;;;;1.43;0.50;;;;;;;15.93;88.51;98256.66;4939753;28;20234;-53
2022/09/08 06:36:39;;;;;;;0.93;0.40;;;;;;;16.04;88.61;98261.38;4935314;28;20251;-55
2022/09/08 06:39:13;;;;;;;1.33;0.70;;;;;;;16.08;89.08;98259.19;4932408;28;20233;-53
2022/09/08 06:41:47;;;;;;;2.37;0.50;;;;;;;16.23;88.07;98267.78;4937236;28;20232;-53
2022/09/08 06:44:20;;;;;;;2.57;0.50;;;;;;;16.29;87.88;98260.88;4932099;28;20229;-55
2022/09/08 06:46:47;;;;;;;2.10;0.40;;;;;;;16.30;85.53;98264.34;4937790;28;20328;-52
2022/09/08 06:49:15;;;;;;;2.60;0.70;;;;;;;16.34;85.71;98268.22;4931588;28;20257;-52
2022/09/08 06:51:50;;;;;;;2.23;0.50;;;;;;;16.36;82.42;98267.00;4936208;28;20631;-54
2022/09/08 06:54:29;;;;;;;0.40;0.40;;;;;;;16.59;83.27;98272.94;4935996;28;20565;-55
2022/09/08 06:57:07;;;;;;;1.97;0.60;;;;;;;16.76;84.21;98262.84;4935972;28;20218;-54
2022/09/08 06:59:43;;;;;;;0.90;0.47;;;;;;;17.00;80.84;98271.22;4933331;28;20253;-53
2022/09/08 07:02:27;;;;;;;0.70;0.50;;;;;;;17.10;80.97;98269.00;4934379;28;20265;-54
2022/09/08 07:05:01;;;;;;;0.90;0.30;;;;;;;17.22;80.77;98266.59;4937296;28;20723;-53
2022/09/08 07:07:35;;;;;;;3.30;0.40;;;;;;;17.40;76.86;98276.50;4934645;28;20693;-52
2022/09/08 07:10:10;;;;;;;2.10;0.40;;;;;;;17.41;78.78;98272.88;4938780;28;20317;-54
2022/09/08 07:12:46;;;;;;;1.37;0.50;;;;;;;17.55;78.44;98274.47;4935421;28;20309;-55
2022/09/08 07:15:25;;;;;;;4.67;0.40;;;;;;;17.66;76.36;98270.38;4932130;28;20253;-53
2022/09/08 07:17:57;;;;;;;3.70;0.67;;;;;;;17.70;78.42;98271.59;4934048;28;20263;-55
2022/09/08 07:20:28;;;;;;;0.93;0.30;;;;;;;17.92;77.92;98278.47;4935852;28;20243;-52
2022/09/08 07:23:00;;;;;;;1.07;0.47;;;;;;;18.21;77.88;98279.00;4934267;28;20253;-55
2022/09/08 07:25:32;;;;;;;1.77;0.50;;;;;;;18.52;76.16;98288.03;4936005;28;20234;-53
2022/09/08 07:28:04;;;;;;;0.63;0.43;;;;;;;18.39;74.68;98284.44;4936735;28;20245;-52
2022/09/08 07:30:31;;;;;;;1.07;0.40;;;;;;;18.08;76.10;98287.81;4931220;28;20233;-55
2022/09/08 07:33:03;;;;;;;0.90;0.60;;;;;;;18.01;76.86;98293.13;4937998;28;20854;-55
2022/09/08 07:35:45;;;;;;;2.37;0.50;;;;;;;17.89;76.94;98295.53;4934449;28;20231;-55
2022/09/08 07:38:18;;;;;;;2.60;0.80;;;;;;;18.02;78.24;98293.91;4933875;28;20295;-54
2022/09/08 07:40:49;;;;;;;1.40;0.50;;;;;;;17.98;79.34;98296.94;4938484;28;20241;-55
2022/09/08 07:43:16;;;;;;;0.63;0.60;;;;;;;18.17;77.64;98302.41;4931696;28;20480;-55
2022/09/08 07:45:49;;;;;;;0.93;0.67;;;;;;;18.19;76.80;98305.66;4938079;28;20813;-55
2022/09/08 07:48:26;;;;;;;2.47;0.50;;;;;;;18.27;76.31;98325.72;4932273;28;20849;-53
2022/09/08 07:51:04;;;;;;;2.57;0.60;;;;;;;17.95;75.76;98309.75;4935499;28;20237;-55
2022/09/08 07:54:17;;;;;;;2.53;0.60;;;;;;;18.03;74.62;98311.38;4931946;28;20252;-55
2022/09/08 07:56:49;;;;;;;0.63;0.50;;;;;;;17.97;77.79;98305.88;4929901;28;20256;-51
2022/09/08 07:59:24;;;;;;;1.23;0.50;;;;;;;18.22;76.78;98309.69;4934010;28;20718;-54
2022/09/08 08:02:00;;;;;;;2.00;0.60;;;;;;;18.29;77.44;98310.47;4935426;28;20221;-56
2022/09/08 08:04:45;;;;;;;1.50;0.60;;;;;;;18.40;77.37;98303.75;4934727;28;21290;-53
2022/09/08 08:07:20;;;;;;;2.33;0.90;;;;;;;18.37;77.52;98306.81;4934270;28;20241;-52
2022/09/08 08:09:53;;;;;;;0.77;0.60;;;;;;;17.87;77.63;98313.41;4935393;28;20630;-53
2022/09/08 08:12:29;;;;;;;5.60;0.77;;;;;;;17.98;78.46;98315.41;4933806;28;20309;-55
2022/09/08 08:15:01;;;;;;;1.67;0.57;;;;;;;17.89;79.38;98313.22;4935642;28;20301;-55
2022/09/08 08:17:35;;;;;;;1.07;0.47;;;;;;;17.92;79.80;98323.38;4932768;28;20235;-52
2022/09/08 08:20:24;;;;;;;1.97;0.60;;;;;;;17.84;79.12;98319.09;4932448;28;20235;-56
2022/09/08 08:23:17;;;;;;;0.80;0.50;;;;;;;17.87;80.38;98321.34;4933311;28;20622;-52
2022/09/08 08:25:49;;;;;;;1.60;0.60;;;;;;;18.05;80.24;98317.28;4933350;28;20757;-55
2022/09/08 08:28:19;;;;;;;4.33;0.60;;;;;;;18.29;79.70;98326.34;4935852;28;20232;-52
2022/09/08 08:30:54;;;;;;;2.20;0.77;;;;;;;18.51;78.95;98323.41;4933195;28;20309;-53
2022/09/08 08:33:27;;;;;;;1.37;0.63;;;;;;;18.77;79.63;98332.25;4931943;28;20591;-54
2022/09/08 08:35:57;;;;;;;0.97;0.70;;;;;;;18.73;75.73;98334.50;4934524;28;20656;-53
2022/09/08 08:38:31;;;;;;;3.30;0.70;;;;;;;18.60;76.96;98330.09;4935106;28;20337;-55
2022/09/08 08:40:59;;;;;;;1.60;0.60;;;;;;;18.72;76.37;98331.06;4941095;28;20266;-53
2022/09/08 08:43:56;;;;;;;2.50;0.60;;;;;;;18.89;76.41;98336.66;4932787;28;20303;-53
2022/09/08 08:47:00;;;;;;;2.17;0.50;;;;;;;19.20;71.49;98339.53;4933890;28;22636;-54
2022/09/08 08:49:53;;;;;;;0.90;0.50;;;;;;;19.12;71.21;98348.56;4935124;28;20318;-56
2022/09/08 08:52:35;;;;;;;3.57;0.53;;;;;;;19.05;72.34;98336.41;4935494;28;20263;-55
2022/09/08 08:55:20;;;;;;;3.63;0.57;;;;;;;19.21;71.56;98345.66;4937078;28;20256;-54
2022/09/08 08:58:00;;;;;;;2.00;0.70;;;;;;;19.35;72.27;98349.00;4932314;28;20239;-54
2022/09/08 09:00:35;;;;;;;1.37;0.80;;;;;;;19.41;70.74;98342.84;4932873;28;20325;-56
2022/09/08 09:03:39;;;;;;;2.63;0.67;;;;;;;19.25;70.53;98336.25;4936858;28;20234;-53
2022/09/08 09:06:50;;;;;;;1.57;0.70;;;;;;;19.88;67.94;98345.09;4929500;28;20317;-55
2022/09/08 09:09:42;;;;;;;2.63;0.80;;;;;;;19.91;71.28;98342.03;4857336;29;20604;-58
2022/09/08 09:12:22;;;;;;;1.57;0.67;;;;;;;20.33;68.81;98347.53;4861725;29;20240;-55
2022/09/08 09:15:01;;;;;;;3.60;0.60;;;;;;;20.49;65.10;98353.28;4922366;28;20260;-55
2022/09/08 09:17:46;;;;;;;1.93;0.80;;;;;;;19.90;68.74;98337.78;4936874;28;20604;-53
2022/09/08 09:20:49;;;;;;;3.90;0.70;;;;;;;19.84;69.19;98334.16;4941167;28;20229;-53
2022/09/08 09:23:35;;;;;;;7.57;0.90;;;;;;;20.10;67.15;98336.78;4916001;28;20604;-56
2022/09/08 09:26:07;;;;;;;1.73;0.70;;;;;;;19.83;69.42;98339.66;4940933;28;20241;-54
2022/09/08 09:28:54;;;;;;;1.03;0.50;;;;;;;19.94;69.92;98336.31;4938780;28;20573;-55
2022/09/08 09:32:01;;;;;;;2.17;0.73;;;;;;;20.11;67.91;98333.91;4935092;28;20933;-55
2022/09/08 09:35:13;;;;;;;2.10;0.90;;;;;;;19.73;68.42;98338.31;4935347;28;20243;-55
2022/09/08 09:38:20;;;;;;;1.13;0.57;;;;;;;19.54;69.50;98326.88;4933061;28;20348;-54
2022/09/08 09:40:59;;;;;;;1.00;0.60;;;;;;;19.72;68.98;98333.25;4936015;28;20240;-53
2022/09/08 09:43:43;;;;;;;3.40;0.70;;;;;;;19.28;69.50;98325.25;4936569;28;20251;-55
2022/09/08 09:46:55;;;;;;;2.07;0.87;;;;;;;19.61;70.59;98334.75;4935843;28;20331;-55
2022/09/08 09:49:51;;;;;;;1.80;0.70;;;;;;;19.67;65.79;98344.47;4922504;28;20303;-52
2022/09/08 09:52:24;;;;;;;1.10;0.50;;;;;;;19.82;63.92;98333.56;4934420;28;20230;-56
2022/09/08 09:55:04;;;;;;;1.93;0.60;;;;;;;20.05;63.71;98330.28;4938256;28;20688;-55
2022/09/08 09:57:59;;;;;;;1.53;0.60;;;;;;;20.38;61.70;98327.50;4935987;28;20238;-53
2022/09/08 10:00:33;;;;;;;5.47;0.70;;;;;;;20.24;63.52;98325.00;4936548;28;20241;-55
2022/09/08 10:03:32;;;;;;;3.47;0.60;;;;;;;20.33;60.54;98328.97;4937743;28;20257;-54
2022/09/08 10:06:32;;;;;;;1.27;0.53;;;;;;;20.67;58.96;98330.41;4937045;28;20308;-56
2022/09/08 10:09:39;;;;;;;2.00;0.77;;;;;;;20.57;59.09;98328.28;4933290;28;20227;-54
2022/09/08 10:13:17;;;;;;;4.50;0.50;;;;;;;20.75;58.38;98325.59;4930706;28;20246;-54
2022/09/08 10:16:13;;;;;;;2.73;0.70;;;;;;;20.77;58.13;98330.66;4937820;28;20234;-55
2022/09/08 10:19:13;;;;;;;2.27;0.60;;;;;;;20.18;59.35;98337.28;4933256;28;20241;-55
2022/09/08 10:22:19;;;;;;;3.70;0.63;;;;;;;19.85;60.26;98333.13;4938078;28;20279;-56
2022/09/08 10:25:10;;;;;;;2.03;0.63;;;;;;;20.07;60.72;98340.69;4931436;28;20239;-56
2022/09/08 10:27:52;;;;;;;2.37;0.67;;;;;;;20.00;58.75;98334.66;4933391;28;20238;-56
2022/09/08 10:30:40;;;;;;;2.47;0.87;;;;;;;20.12;59.86;98332.88;4933685;28;20240;-57
2022/09/08 10:33:29;;;;;;;1.77;0.60;;;;;;;20.06;58.16;98325.81;4928805;28;20318;-56
2022/09/08 10:36:06;;;;;;;3.10;0.90;;;;;;;20.12;58.55;98342.66;4939253;28;20234;-56
2022/09/08 10:38:52;;;;;;;6.10;1.07;;;;;;;19.98;59.80;98345.44;4936448;28;20599;-53
2022/09/08 10:42:04;;;;;;;4.60;0.60;;;;;;;19.84;61.68;98346.56;4933146;28;20226;-55
2022/09/08 10:45:02;;;;;;;2.03;0.40;;;;;;;20.21;59.27;98344.78;4898656;28;20236;-56
2022/09/08 10:48:03;;;;;;;4.13;0.70;;;;;;;20.46;58.75;98345.75;4933109;28;20353;-53
2022/09/08 10:50:30;;;;;;;4.00;1.33;;;;;;;20.39;57.15;98348.47;4909918;28;20243;-53
2022/09/08 10:53:13;;;;;;;2.73;0.60;;;;;;;20.77;59.03;98344.78;4936585;28;20983;-53
2022/09/08 10:56:14;;;;;;;2.27;0.80;;;;;;;20.91;59.84;98348.06;4935759;28;20266;-53
2022/09/08 10:59:10;;;;;;;3.77;0.90;;;;;;;20.75;57.93;98341.50;4921914;28;20353;-55
2022/09/08 11:02:05;;;;;;;2.83;0.60;;;;;;;20.79;57.91;98342.72;4932534;28;20253;-53
2022/09/08 11:05:13;;;;;;;3.03;0.80;;;;;;;21.46;56.21;98346.25;4933211;28;20290;-55
2022/09/08 11:08:16;;;;;;;2.10;0.63;;;;;;;21.61;55.57;98351.09;4933597;28;20232;-58
2022/09/08 11:11:20;;;;;;;2.93;0.60;;;;;;;21.65;55.71;98333.69;4913880;28;20230;-57
2022/09/08 11:14:00;;;;;;;2.63;0.60;;;;;;;21.85;54.52;98335.19;4909055;28;20240;-56
2022/09/08 11:16:52;;;;;;;3.30;0.87;;;;;;;21.74;52.46;98330.69;4931208;28;20241;-59
2022/09/08 11:19:36;;;;;;;3.40;1.27;;;;;;;21.43;53.16;98328.13;4936512;28;20727;-56
2022/09/08 11:22:31;;;;;;;4.13;0.90;;;;;;;21.65;52.67;98336.34;4936272;28;20236;-55
2022/09/08 11:25:16;;;;;;;5.60;0.73;;;;;;;21.63;51.96;98332.31;4932155;28;20240;-54
2022/09/08 11:27:56;;;;;;;3.70;0.80;;;;;;;21.74;52.23;98328.84;4932402;28;20259;-53
2022/09/08 11:30:27;;;;;;;4.63;0.83;;;;;;;21.25;53.94;98323.69;4933224;28;20232;-55
2022/09/08 11:33:07;;;;;;;5.20;0.90;;;;;;;21.18;54.36;98328.31;4931045;28;20251;-53
2022/09/08 11:35:48;;;;;;;4.97;0.67;;;;;;;20.88;54.59;98326.50;4931108;28;20235;-56
2022/09/08 11:38:28;;;;;;;2.10;0.70;;;;;;;20.99;54.79;98327.53;4933699;28;20611;-55
2022/09/08 11:41:35;;;;;;;2.53;0.60;;;;;;;20.93;53.93;98322.09;4938129;28;20231;-54
2022/09/08 11:44:49;;;;;;;4.43;0.70;;;;;;;21.41;54.07;98321.41;4932627;28;20611;-55
2022/09/08 11:47:36;;;;;;;8.57;1.27;;;;;;;21.67;55.12;98323.66;4855842;29;20253;-54
2022/09/08 11:50:38;;;;;;;5.50;0.97;;;;;;;21.57;54.78;98315.41;4935695;28;20231;-55
2022/09/08 11:53:28;;;;;;;2.03;0.63;;;;;;;21.51;53.11;98311.03;4931388;28;20243;-56
2022/09/08 11:56:15;;;;;;;5.37;1.10;;;;;;;21.53;54.32;98311.59;4935635;28;20237;-52
2022/09/08 11:58:59;;;;;;;6.97;1.73;;;;;;;21.43;55.88;98322.81;4932360;28;20231;-53
2022/09/08 12:01:45;;;;;;;3.10;0.70;;;;;;;21.29;55.46;98319.53;4934704;28;20232;-55
2022/09/08 12:04:26;;;;;;;6.17;1.37;;;;;;;21.22;55.32;98318.81;4933948;28;20736;-54
2022/09/08 12:07:15;;;;;;;2.93;0.87;;;;;;;21.24;55.97;98322.06;4932565;28;20240;-55
2022/09/08 12:10:01;;;;;;;3.77;0.80;;;;;;;21.64;54.65;98318.00;4931410;28;20235;-56
2022/09/08 12:12:47;;;;;;;6.70;1.10;;;;;;;21.93;51.67;98315.44;4932994;28;20736;-55
2022/09/08 12:15:31;;;;;;;2.77;0.80;;;;;;;22.14;53.54;98315.88;4932850;28;20696;-54
2022/09/08 12:18:13;;;;;;;5.40;1.00;;;;;;;22.16;50.78;98311.94;4937149;28;20510;-56
2022/09/08 12:21:10;;;;;;;4.70;0.90;;;;;;;22.52;51.07;98314.53;4932292;28;20295;-55